Mystic, Georgia
Current Conditions -  °F | °C
As of 3:15 AM on Thursday 27 Nov 2014 (Local Time) from KFZG Reporting Station
Clear Clear  
Wind Chill: 45°   Ceiling: Unl
Heat Index: 47°   Visibility: 10mi
Dew Point: 36°   Wind: 5mph
Humidity: 67%   Direction: 250°WSW
Pressure: 30.18"   Gusts: NA
Location:  31.62°N, 83.34°W
Report Text: KFZG 270815Z AUTO 25004KT 10SM CLR 08/02 A3018 RMK AO2 T00820024
Loading
Personal Weather Stations






























Interactive Weather Map New forecast layout! Learn more

10-Day Weather Forecast

Advertisements
Track Severe Weather on mobile